sensor_id;sensor_type;location;lat;lon;timestamp;temperature;humidity
27368;DHT22;14839;48.106;11.618;2023-06-04T00:02:12;14.10;93.50
27368;DHT22;14839;48.106;11.618;2023-06-04T00:04:38;14.00;93.70
27368;DHT22;14839;48.106;11.618;2023-06-04T00:07:04;14.00;93.10
27368;DHT22;14839;48.106;11.618;2023-06-04T00:09:29;14.00;92.90
27368;DHT22;14839;48.106;11.618;2023-06-04T00:11:55;14.00;92.40
27368;DHT22;14839;48.106;11.618;2023-06-04T00:14:21;14.00;92.50
27368;DHT22;14839;48.106;11.618;2023-06-04T00:16:46;13.90;92.50
27368;DHT22;14839;48.106;11.618;2023-06-04T00:19:12;13.90;91.50
27368;DHT22;14839;48.106;11.618;2023-06-04T00:21:37;13.90;90.90
27368;DHT22;14839;48.106;11.618;2023-06-04T00:24:03;13.90;90.70
27368;DHT22;14839;48.106;11.618;2023-06-04T00:26:28;13.90;90.50
27368;DHT22;14839;48.106;11.618;2023-06-04T00:28:54;14.00;89.80
27368;DHT22;14839;48.106;11.618;2023-06-04T00:31:20;14.00;88.30
27368;DHT22;14839;48.106;11.618;2023-06-04T00:33:47;13.90;87.10
27368;DHT22;14839;48.106;11.618;2023-06-04T00:36:13;13.90;86.60
27368;DHT22;14839;48.106;11.618;2023-06-04T00:38:38;13.90;86.30
27368;DHT22;14839;48.106;11.618;2023-06-04T00:41:04;13.90;86.00
27368;DHT22;14839;48.106;11.618;2023-06-04T00:43:30;14.00;86.00
27368;DHT22;14839;48.106;11.618;2023-06-04T00:45:57;14.00;84.40
27368;DHT22;14839;48.106;11.618;2023-06-04T00:48:23;14.00;84.50
27368;DHT22;14839;48.106;11.618;2023-06-04T00:50:50;14.00;84.20
27368;DHT22;14839;48.106;11.618;2023-06-04T00:53:16;14.00;84.40
27368;DHT22;14839;48.106;11.618;2023-06-04T00:55:42;13.90;84.50
27368;DHT22;14839;48.106;11.618;2023-06-04T00:58:08;13.90;84.70
27368;DHT22;14839;48.106;11.618;2023-06-04T01:00:35;13.80;85.10
27368;DHT22;14839;48.106;11.618;2023-06-04T01:03:04;13.80;85.40
27368;DHT22;14839;48.106;11.618;2023-06-04T01:05:39;13.70;85.40
27368;DHT22;14839;48.106;11.618;2023-06-04T01:08:07;13.60;85.60
27368;DHT22;14839;48.106;11.618;2023-06-04T01:10:35;13.50;86.30
27368;DHT22;14839;48.106;11.618;2023-06-04T01:13:00;13.50;86.50
27368;DHT22;14839;48.106;11.618;2023-06-04T01:15:26;13.50;87.80
27368;DHT22;14839;48.106;11.618;2023-06-04T01:17:54;13.40;88.00
27368;DHT22;14839;48.106;11.618;2023-06-04T01:20:36;13.30;88.10
27368;DHT22;14839;48.106;11.618;2023-06-04T01:23:26;13.20;87.80
27368;DHT22;14839;48.106;11.618;2023-06-04T01:26:03;13.20;90.10
27368;DHT22;14839;48.106;11.618;2023-06-04T01:28:30;13.10;89.90
27368;DHT22;14839;48.106;11.618;2023-06-04T01:30:57;13.10;89.80
27368;DHT22;14839;48.106;11.618;2023-06-04T01:33:25;13.00;90.30
27368;DHT22;14839;48.106;11.618;2023-06-04T01:35:51;13.10;90.10
27368;DHT22;14839;48.106;11.618;2023-06-04T01:38:17;13.20;89.90
27368;DHT22;14839;48.106;11.618;2023-06-04T01:40:42;13.10;90.20
27368;DHT22;14839;48.106;11.618;2023-06-04T01:43:08;13.00;89.90
27368;DHT22;14839;48.106;11.618;2023-06-04T01:45:33;12.90;89.60
27368;DHT22;14839;48.106;11.618;2023-06-04T01:48:02;12.80;90.70
27368;DHT22;14839;48.106;11.618;2023-06-04T01:50:27;12.80;91.30
27368;DHT22;14839;48.106;11.618;2023-06-04T01:52:53;12.80;91.40
27368;DHT22;14839;48.106;11.618;2023-06-04T01:55:19;12.80;91.80
27368;DHT22;14839;48.106;11.618;2023-06-04T01:57:45;12.70;92.10
27368;DHT22;14839;48.106;11.618;2023-06-04T02:00:13;12.60;92.00
27368;DHT22;14839;48.106;11.618;2023-06-04T02:02:41;12.60;92.40
27368;DHT22;14839;48.106;11.618;2023-06-04T02:05:07;12.50;92.60
27368;DHT22;14839;48.106;11.618;2023-06-04T02:07:40;12.50;92.60
27368;DHT22;14839;48.106;11.618;2023-06-04T02:10:08;12.50;92.80
27368;DHT22;14839;48.106;11.618;2023-06-04T02:12:36;12.40;93.20
27368;DHT22;14839;48.106;11.618;2023-06-04T02:15:02;12.30;93.40
27368;DHT22;14839;48.106;11.618;2023-06-04T02:17:28;12.30;93.80
27368;DHT22;14839;48.106;11.618;2023-06-04T02:19:58;12.20;94.20
27368;DHT22;14839;48.106;11.618;2023-06-04T02:22:24;12.10;94.60
27368;DHT22;14839;48.106;11.618;2023-06-04T02:24:50;12.10;94.40
27368;DHT22;14839;48.106;11.618;2023-06-04T02:27:15;12.10;94.60
27368;DHT22;14839;48.106;11.618;2023-06-04T02:29:41;12.00;94.50
27368;DHT22;14839;48.106;11.618;2023-06-04T02:32:08;12.00;94.60
27368;DHT22;14839;48.106;11.618;2023-06-04T02:34:34;11.90;94.60
27368;DHT22;14839;48.106;11.618;2023-06-04T02:37:00;11.90;94.60
27368;DHT22;14839;48.106;11.618;2023-06-04T02:39:26;11.80;94.60
27368;DHT22;14839;48.106;11.618;2023-06-04T02:41:51;11.80;94.60
27368;DHT22;14839;48.106;11.618;2023-06-04T02:44:17;11.80;94.60
27368;DHT22;14839;48.106;11.618;2023-06-04T02:46:43;11.70;94.60
27368;DHT22;14839;48.106;11.618;2023-06-04T02:49:09;11.70;94.60
27368;DHT22;14839;48.106;11.618;2023-06-04T02:51:34;11.70;94.60
27368;DHT22;14839;48.106;11.618;2023-06-04T02:54:00;11.60;94.60
27368;DHT22;14839;48.106;11.618;2023-06-04T02:56:25;11.60;94.60
27368;DHT22;14839;48.106;11.618;2023-06-04T02:58:52;11.50;94.60
27368;DHT22;14839;48.106;11.618;2023-06-04T03:01:22;11.50;94.60
27368;DHT22;14839;48.106;11.618;2023-06-04T03:03:49;11.40;94.60
27368;DHT22;14839;48.106;11.618;2023-06-04T03:06:16;11.40;94.60
27368;DHT22;14839;48.106;11.618;2023-06-04T03:08:42;11.40;94.60
27368;DHT22;14839;48.106;11.618;2023-06-04T03:11:08;11.30;94.60
27368;DHT22;14839;48.106;11.618;2023-06-04T03:13:34;11.30;94.60
27368;DHT22;14839;48.106;11.618;2023-06-04T03:16:00;11.30;94.60
27368;DHT22;14839;48.106;11.618;2023-06-04T03:18:27;11.30;94.60
27368;DHT22;14839;48.106;11.618;2023-06-04T03:20:53;11.20;94.60
27368;DHT22;14839;48.106;11.618;2023-06-04T03:23:19;11.20;94.60
27368;DHT22;14839;48.106;11.618;2023-06-04T03:25:45;11.20;94.60
27368;DHT22;14839;48.106;11.618;2023-06-04T03:28:11;11.20;94.60
27368;DHT22;14839;48.106;11.618;2023-06-04T03:30:36;11.20;94.60
27368;DHT22;14839;48.106;11.618;2023-06-04T03:33:02;11.10;94.60
27368;DHT22;14839;48.106;11.618;2023-06-04T03:35:28;11.00;94.60
27368;DHT22;14839;48.106;11.618;2023-06-04T03:37:54;11.00;94.60
27368;DHT22;14839;48.106;11.618;2023-06-04T03:40:19;10.90;94.60
27368;DHT22;14839;48.106;11.618;2023-06-04T03:42:45;11.00;94.60
27368;DHT22;14839;48.106;11.618;2023-06-04T03:45:11;11.00;94.60
27368;DHT22;14839;48.106;11.618;2023-06-04T03:47:38;11.10;94.60
27368;DHT22;14839;48.106;11.618;2023-06-04T03:50:05;11.10;94.60
27368;DHT22;14839;48.106;11.618;2023-06-04T03:52:31;11.10;94.60
27368;DHT22;14839;48.106;11.618;2023-06-04T03:54:56;11.10;94.60
27368;DHT22;14839;48.106;11.618;2023-06-04T03:57:22;11.20;94.60
27368;DHT22;14839;48.106;11.618;2023-06-04T03:59:48;11.20;94.60
27368;DHT22;14839;48.106;11.618;2023-06-04T04:02:13;11.20;94.60
27368;DHT22;14839;48.106;11.618;2023-06-04T04:04:39;11.30;94.60
27368;DHT22;14839;48.106;11.618;2023-06-04T04:07:04;11.30;94.60
27368;DHT22;14839;48.106;11.618;2023-06-04T04:09:30;11.30;94.60
27368;DHT22;14839;48.106;11.618;2023-06-04T04:11:55;11.40;94.60
27368;DHT22;14839;48.106;11.618;2023-06-04T04:14:21;11.40;94.60
27368;DHT22;14839;48.106;11.618;2023-06-04T04:16:47;11.40;94.60
27368;DHT22;14839;48.106;11.618;2023-06-04T04:19:13;11.50;94.60
27368;DHT22;14839;48.106;11.618;2023-06-04T04:21:38;11.50;94.60
27368;DHT22;14839;48.106;11.618;2023-06-04T04:24:04;11.60;94.60
27368;DHT22;14839;48.106;11.618;2023-06-04T04:26:29;11.80;94.60
27368;DHT22;14839;48.106;11.618;2023-06-04T04:28:55;12.00;94.60
27368;DHT22;14839;48.106;11.618;2023-06-04T04:31:26;12.10;94.60
27368;DHT22;14839;48.106;11.618;2023-06-04T04:33:54;12.40;94.60
27368;DHT22;14839;48.106;11.618;2023-06-04T04:36:20;12.50;94.60
27368;DHT22;14839;48.106;11.618;2023-06-04T04:38:45;12.70;94.60
27368;DHT22;14839;48.106;11.618;2023-06-04T04:41:11;13.20;94.60
27368;DHT22;14839;48.106;11.618;2023-06-04T04:43:38;14.30;94.60
27368;DHT22;14839;48.106;11.618;2023-06-04T04:46:06;15.80;91.80
27368;DHT22;14839;48.106;11.618;2023-06-04T04:48:33;17.50;82.60
27368;DHT22;14839;48.106;11.618;2023-06-04T04:50:58;18.70;73.60
27368;DHT22;14839;48.106;11.618;2023-06-04T04:53:25;19.70;70.30
27368;DHT22;14839;48.106;11.618;2023-06-04T04:55:51;20.60;64.30
27368;DHT22;14839;48.106;11.618;2023-06-04T04:58:17;21.30;62.80
27368;DHT22;14839;48.106;11.618;2023-06-04T05:00:42;22.10;61.00
27368;DHT22;14839;48.106;11.618;2023-06-04T05:03:08;23.10;58.50
27368;DHT22;14839;48.106;11.618;2023-06-04T05:05:34;23.40;56.00
27368;DHT22;14839;48.106;11.618;2023-06-04T05:07:59;23.60;55.00
27368;DHT22;14839;48.106;11.618;2023-06-04T05:10:25;23.80;55.00
27368;DHT22;14839;48.106;11.618;2023-06-04T05:12:58;24.10;54.10
27368;DHT22;14839;48.106;11.618;2023-06-04T05:15:25;24.00;53.90
27368;DHT22;14839;48.106;11.618;2023-06-04T05:17:52;24.40;53.30
27368;DHT22;14839;48.106;11.618;2023-06-04T05:20:18;24.80;52.70
27368;DHT22;14839;48.106;11.618;2023-06-04T05:22:44;25.60;51.70
27368;DHT22;14839;48.106;11.618;2023-06-04T05:25:11;26.40;48.60
27368;DHT22;14839;48.106;11.618;2023-06-04T05:27:36;26.50;48.30
27368;DHT22;14839;48.106;11.618;2023-06-04T05:30:05;26.50;48.30
27368;DHT22;14839;48.106;11.618;2023-06-04T05:32:32;26.30;46.50
27368;DHT22;14839;48.106;11.618;2023-06-04T05:34:58;26.90;46.10
27368;DHT22;14839;48.106;11.618;2023-06-04T05:37:27;26.80;46.80
27368;DHT22;14839;48.106;11.618;2023-06-04T05:39:54;26.20;44.60
27368;DHT22;14839;48.106;11.618;2023-06-04T05:42:20;26.20;46.10
27368;DHT22;14839;48.106;11.618;2023-06-04T05:44:46;25.80;46.40
27368;DHT22;14839;48.106;11.618;2023-06-04T05:47:12;25.70;45.20
27368;DHT22;14839;48.106;11.618;2023-06-04T05:49:37;26.40;45.40
27368;DHT22;14839;48.106;11.618;2023-06-04T05:52:03;25.70;45.20
27368;DHT22;14839;48.106;11.618;2023-06-04T05:54:29;24.60;48.60
27368;DHT22;14839;48.106;11.618;2023-06-04T05:56:55;25.40;49.60
27368;DHT22;14839;48.106;11.618;2023-06-04T05:59:21;24.90;46.40
27368;DHT22;14839;48.106;11.618;2023-06-04T06:01:46;24.90;47.90
27368;DHT22;14839;48.106;11.618;2023-06-04T06:04:13;25.20;46.40
27368;DHT22;14839;48.106;11.618;2023-06-04T06:06:39;24.60;48.30
27368;DHT22;14839;48.106;11.618;2023-06-04T06:09:05;24.00;48.30
27368;DHT22;14839;48.106;11.618;2023-06-04T06:11:31;24.30;49.60
27368;DHT22;14839;48.106;11.618;2023-06-04T06:13:57;25.00;45.90
27368;DHT22;14839;48.106;11.618;2023-06-04T06:16:23;25.00;47.90
27368;DHT22;14839;48.106;11.618;2023-06-04T06:18:48;26.30;46.80
27368;DHT22;14839;48.106;11.618;2023-06-04T06:21:14;26.30;44.20
27368;DHT22;14839;48.106;11.618;2023-06-04T06:23:39;23.70;47.40
27368;DHT22;14839;48.106;11.618;2023-06-04T06:26:05;24.30;50.70
27368;DHT22;14839;48.106;11.618;2023-06-04T06:28:34;25.90;44.60
27368;DHT22;14839;48.106;11.618;2023-06-04T06:31:01;25.10;46.40
27368;DHT22;14839;48.106;11.618;2023-06-04T06:33:27;25.90;45.20
27368;DHT22;14839;48.106;11.618;2023-06-04T06:35:52;26.10;45.80
27368;DHT22;14839;48.106;11.618;2023-06-04T06:38:18;26.30;44.30
27368;DHT22;14839;48.106;11.618;2023-06-04T06:40:43;24.90;48.60
27368;DHT22;14839;48.106;11.618;2023-06-04T06:43:09;26.10;46.70
27368;DHT22;14839;48.106;11.618;2023-06-04T06:45:36;26.60;45.80
27368;DHT22;14839;48.106;11.618;2023-06-04T06:48:01;27.10;45.10
27368;DHT22;14839;48.106;11.618;2023-06-04T06:50:27;27.00;43.60
27368;DHT22;14839;48.106;11.618;2023-06-04T06:52:53;26.00;45.20
27368;DHT22;14839;48.106;11.618;2023-06-04T06:55:18;26.10;47.30
27368;DHT22;14839;48.106;11.618;2023-06-04T06:57:45;26.80;46.20
27368;DHT22;14839;48.106;11.618;2023-06-04T07:00:11;26.90;45.40
27368;DHT22;14839;48.106;11.618;2023-06-04T07:02:37;27.00;43.40
27368;DHT22;14839;48.106;11.618;2023-06-04T07:05:03;26.20;46.50
27368;DHT22;14839;48.106;11.618;2023-06-04T07:07:28;26.90;46.10
27368;DHT22;14839;48.106;11.618;2023-06-04T07:09:54;27.10;45.10
27368;DHT22;14839;48.106;11.618;2023-06-04T07:12:19;27.70;45.40
27368;DHT22;14839;48.106;11.618;2023-06-04T07:14:45;27.70;45.60
27368;DHT22;14839;48.106;11.618;2023-06-04T07:17:11;27.30;44.90
27368;DHT22;14839;48.106;11.618;2023-06-04T07:19:36;26.90;45.50
27368;DHT22;14839;48.106;11.618;2023-06-04T07:22:02;25.90;47.40
27368;DHT22;14839;48.106;11.618;2023-06-04T07:24:27;26.50;47.40
27368;DHT22;14839;48.106;11.618;2023-06-04T07:26:53;26.50;46.10
27368;DHT22;14839;48.106;11.618;2023-06-04T07:29:19;26.80;46.50
27368;DHT22;14839;48.106;11.618;2023-06-04T07:31:44;25.70;47.30
27368;DHT22;14839;48.106;11.618;2023-06-04T07:34:10;24.60;49.60
27368;DHT22;14839;48.106;11.618;2023-06-04T07:36:36;23.90;52.90
27368;DHT22;14839;48.106;11.618;2023-06-04T07:39:02;23.30;54.70
27368;DHT22;14839;48.106;11.618;2023-06-04T07:41:30;22.30;58.40
27368;DHT22;14839;48.106;11.618;2023-06-04T07:43:55;23.30;54.80
27368;DHT22;14839;48.106;11.618;2023-06-04T07:46:21;22.70;58.90
27368;DHT22;14839;48.106;11.618;2023-06-04T07:48:46;23.20;58.50
27368;DHT22;14839;48.106;11.618;2023-06-04T07:51:13;24.20;57.00
27368;DHT22;14839;48.106;11.618;2023-06-04T07:53:39;24.20;53.60
27368;DHT22;14839;48.106;11.618;2023-06-04T07:56:06;24.20;54.50
27368;DHT22;14839;48.106;11.618;2023-06-04T07:58:31;24.60;55.30
27368;DHT22;14839;48.106;11.618;2023-06-04T08:00:57;25.10;54.50
27368;DHT22;14839;48.106;11.618;2023-06-04T08:03:23;25.40;51.40
27368;DHT22;14839;48.106;11.618;2023-06-04T08:05:49;24.70;53.20
27368;DHT22;14839;48.106;11.618;2023-06-04T08:08:15;25.00;56.60
27368;DHT22;14839;48.106;11.618;2023-06-04T08:10:41;25.50;53.80
27368;DHT22;14839;48.106;11.618;2023-06-04T08:13:07;25.40;50.80
27368;DHT22;14839;48.106;11.618;2023-06-04T08:15:34;25.00;52.40
27368;DHT22;14839;48.106;11.618;2023-06-04T08:17:59;25.50;53.20
27368;DHT22;14839;48.106;11.618;2023-06-04T08:20:25;25.70;49.80
27368;DHT22;14839;48.106;11.618;2023-06-04T08:22:51;25.60;51.10
27368;DHT22;14839;48.106;11.618;2023-06-04T08:25:16;25.70;50.70
27368;DHT22;14839;48.106;11.618;2023-06-04T08:27:42;24.80;50.40
27368;DHT22;14839;48.106;11.618;2023-06-04T08:30:09;23.70;53.60
27368;DHT22;14839;48.106;11.618;2023-06-04T08:32:34;23.60;55.70
27368;DHT22;14839;48.106;11.618;2023-06-04T08:35:00;24.00;53.50
27368;DHT22;14839;48.106;11.618;2023-06-04T08:37:26;24.30;53.20
27368;DHT22;14839;48.106;11.618;2023-06-04T08:39:51;25.00;54.80
27368;DHT22;14839;48.106;11.618;2023-06-04T08:44:52;25.90;52.30
27368;DHT22;14839;48.106;11.618;2023-06-04T08:47:19;26.30;49.00
27368;DHT22;14839;48.106;11.618;2023-06-04T08:49:49;24.60;48.90
27368;DHT22;14839;48.106;11.618;2023-06-04T08:52:16;24.10;54.40
27368;DHT22;14839;48.106;11.618;2023-06-04T08:54:42;24.80;52.60
27368;DHT22;14839;48.106;11.618;2023-06-04T08:57:08;25.50;52.30
27368;DHT22;14839;48.106;11.618;2023-06-04T08:59:35;25.60;50.10
27368;DHT22;14839;48.106;11.618;2023-06-04T09:02:01;25.20;51.10
27368;DHT22;14839;48.106;11.618;2023-06-04T09:04:29;24.50;52.20
27368;DHT22;14839;48.106;11.618;2023-06-04T09:06:55;25.30;50.50
27368;DHT22;14839;48.106;11.618;2023-06-04T09:09:25;25.20;49.90
27368;DHT22;14839;48.106;11.618;2023-06-04T09:11:52;25.10;51.30
27368;DHT22;14839;48.106;11.618;2023-06-04T09:14:18;25.20;49.90
27368;DHT22;14839;48.106;11.618;2023-06-04T09:16:45;25.60;50.40
27368;DHT22;14839;48.106;11.618;2023-06-04T09:19:11;26.20;51.10
27368;DHT22;14839;48.106;11.618;2023-06-04T09:21:56;25.70;49.90
27368;DHT22;14839;48.106;11.618;2023-06-04T09:24:25;25.30;50.20
27368;DHT22;14839;48.106;11.618;2023-06-04T09:26:51;25.30;49.80
27368;DHT22;14839;48.106;11.618;2023-06-04T09:29:18;25.30;51.40
27368;DHT22;14839;48.106;11.618;2023-06-04T09:31:59;24.70;50.80
27368;DHT22;14839;48.106;11.618;2023-06-04T09:34:28;24.60;53.20
27368;DHT22;14839;48.106;11.618;2023-06-04T09:36:54;25.60;53.80
27368;DHT22;14839;48.106;11.618;2023-06-04T09:39:20;26.20;52.60
27368;DHT22;14839;48.106;11.618;2023-06-04T09:41:57;27.00;53.60
27368;DHT22;14839;48.106;11.618;2023-06-04T09:44:23;26.90;46.50
27368;DHT22;14839;48.106;11.618;2023-06-04T09:46:56;26.80;50.50
27368;DHT22;14839;48.106;11.618;2023-06-04T09:49:22;26.80;45.20
27368;DHT22;14839;48.106;11.618;2023-06-04T09:51:48;26.50;47.00
27368;DHT22;14839;48.106;11.618;2023-06-04T09:54:14;26.20;47.70
27368;DHT22;14839;48.106;11.618;2023-06-04T09:56:40;26.40;48.60
27368;DHT22;14839;48.106;11.618;2023-06-04T09:59:08;26.40;47.60
27368;DHT22;14839;48.106;11.618;2023-06-04T10:01:38;26.30;47.60
27368;DHT22;14839;48.106;11.618;2023-06-04T10:04:07;26.00;46.10
27368;DHT22;14839;48.106;11.618;2023-06-04T10:06:34;24.90;48.80
27368;DHT22;14839;48.106;11.618;2023-06-04T10:09:05;25.20;48.60
27368;DHT22;14839;48.106;11.618;2023-06-04T10:11:39;25.10;48.00
27368;DHT22;14839;48.106;11.618;2023-06-04T10:14:21;24.60;48.30
27368;DHT22;14839;48.106;11.618;2023-06-04T10:16:48;23.40;50.70
27368;DHT22;14839;48.106;11.618;2023-06-04T10:19:14;22.60;52.90
27368;DHT22;14839;48.106;11.618;2023-06-04T10:21:40;22.60;53.20
27368;DHT22;14839;48.106;11.618;2023-06-04T10:24:07;23.30;53.20
27368;DHT22;14839;48.106;11.618;2023-06-04T10:26:33;23.50;52.00
27368;DHT22;14839;48.106;11.618;2023-06-04T10:29:01;23.30;52.90
27368;DHT22;14839;48.106;11.618;2023-06-04T10:31:28;23.70;51.60
27368;DHT22;14839;48.106;11.618;2023-06-04T10:33:55;24.00;53.00
27368;DHT22;14839;48.106;11.618;2023-06-04T10:36:22;24.40;50.10
27368;DHT22;14839;48.106;11.618;2023-06-04T10:38:49;24.50;49.80
27368;DHT22;14839;48.106;11.618;2023-06-04T10:41:16;24.20;50.10
27368;DHT22;14839;48.106;11.618;2023-06-04T10:43:47;24.20;48.80
27368;DHT22;14839;48.106;11.618;2023-06-04T10:46:18;24.00;51.00
27368;DHT22;14839;48.106;11.618;2023-06-04T10:48:51;23.80;51.00
27368;DHT22;14839;48.106;11.618;2023-06-04T10:51:31;23.80;50.40
27368;DHT22;14839;48.106;11.618;2023-06-04T10:53:58;24.10;49.90
27368;DHT22;14839;48.106;11.618;2023-06-04T10:56:28;23.90;49.60
27368;DHT22;14839;48.106;11.618;2023-06-04T10:58:54;23.50;49.80
27368;DHT22;14839;48.106;11.618;2023-06-04T11:01:29;23.10;51.60
27368;DHT22;14839;48.106;11.618;2023-06-04T11:03:55;23.10;49.80
27368;DHT22;14839;48.106;11.618;2023-06-04T11:06:22;23.10;51.10
27368;DHT22;14839;48.106;11.618;2023-06-04T11:08:48;23.50;50.80
27368;DHT22;14839;48.106;11.618;2023-06-04T11:11:16;23.40;49.90
27368;DHT22;14839;48.106;11.618;2023-06-04T11:13:43;23.00;50.50
27368;DHT22;14839;48.106;11.618;2023-06-04T11:16:19;23.10;51.40
27368;DHT22;14839;48.106;11.618;2023-06-04T11:18:54;23.30;51.30
27368;DHT22;14839;48.106;11.618;2023-06-04T11:21:21;23.80;50.10
27368;DHT22;14839;48.106;11.618;2023-06-04T11:23:46;24.20;48.60
27368;DHT22;14839;48.106;11.618;2023-06-04T11:26:12;24.30;48.60
27368;DHT22;14839;48.106;11.618;2023-06-04T11:28:39;24.00;49.00
27368;DHT22;14839;48.106;11.618;2023-06-04T11:31:05;23.30;50.70
27368;DHT22;14839;48.106;11.618;2023-06-04T11:33:47;22.70;51.10
27368;DHT22;14839;48.106;11.618;2023-06-04T11:36:28;23.00;52.20
27368;DHT22;14839;48.106;11.618;2023-06-04T11:39:00;23.50;51.70
27368;DHT22;14839;48.106;11.618;2023-06-04T11:41:30;24.00;50.40
27368;DHT22;14839;48.106;11.618;2023-06-04T11:43:57;24.30;49.90
27368;DHT22;14839;48.106;11.618;2023-06-04T11:46:23;24.40;50.50
27368;DHT22;14839;48.106;11.618;2023-06-04T11:48:52;24.70;48.30
27368;DHT22;14839;48.106;11.618;2023-06-04T11:51:22;24.60;49.80
27368;DHT22;14839;48.106;11.618;2023-06-04T11:53:47;24.90;51.70
27368;DHT22;14839;48.106;11.618;2023-06-04T11:56:14;25.00;49.00
27368;DHT22;14839;48.106;11.618;2023-06-04T11:58:40;24.80;47.40
27368;DHT22;14839;48.106;11.618;2023-06-04T12:01:07;24.10;49.60
27368;DHT22;14839;48.106;11.618;2023-06-04T12:03:38;24.10;49.30
27368;DHT22;14839;48.106;11.618;2023-06-04T12:08:52;24.30;49.90
27368;DHT22;14839;48.106;11.618;2023-06-04T12:11:31;23.60;49.20
27368;DHT22;14839;48.106;11.618;2023-06-04T12:14:04;23.60;49.90
27368;DHT22;14839;48.106;11.618;2023-06-04T12:16:30;23.80;49.90
27368;DHT22;14839;48.106;11.618;2023-06-04T12:19:08;23.70;50.20
27368;DHT22;14839;48.106;11.618;2023-06-04T12:21:34;23.90;49.80
27368;DHT22;14839;48.106;11.618;2023-06-04T12:26:32;23.80;48.50
27368;DHT22;14839;48.106;11.618;2023-06-04T12:31:39;23.50;49.50
27368;DHT22;14839;48.106;11.618;2023-06-04T12:34:05;23.70;49.30
27368;DHT22;14839;48.106;11.618;2023-06-04T12:36:31;23.80;48.30
27368;DHT22;14839;48.106;11.618;2023-06-04T12:39:00;24.30;47.90
27368;DHT22;14839;48.106;11.618;2023-06-04T12:41:29;24.30;47.60
27368;DHT22;14839;48.106;11.618;2023-06-04T12:43:55;24.70;49.00
27368;DHT22;14839;48.106;11.618;2023-06-04T12:46:23;24.70;48.90
27368;DHT22;14839;48.106;11.618;2023-06-04T12:48:53;24.50;47.90
27368;DHT22;14839;48.106;11.618;2023-06-04T12:51:19;24.30;47.90
27368;DHT22;14839;48.106;11.618;2023-06-04T12:53:47;24.00;48.00
27368;DHT22;14839;48.106;11.618;2023-06-04T12:56:13;24.00;48.50
27368;DHT22;14839;48.106;11.618;2023-06-04T12:58:38;24.00;48.20
27368;DHT22;14839;48.106;11.618;2023-06-04T13:01:04;23.80;48.50
27368;DHT22;14839;48.106;11.618;2023-06-04T13:03:31;23.90;48.60
27368;DHT22;14839;48.106;11.618;2023-06-04T13:05:57;24.10;48.20
27368;DHT22;14839;48.106;11.618;2023-06-04T13:08:23;23.70;47.40
27368;DHT22;14839;48.106;11.618;2023-06-04T13:10:52;23.80;48.30
27368;DHT22;14839;48.106;11.618;2023-06-04T13:13:19;23.70;48.80
27368;DHT22;14839;48.106;11.618;2023-06-04T13:15:45;24.00;49.80
27368;DHT22;14839;48.106;11.618;2023-06-04T13:18:11;24.20;50.10
27368;DHT22;14839;48.106;11.618;2023-06-04T13:20:37;24.40;49.20
27368;DHT22;14839;48.106;11.618;2023-06-04T13:23:03;24.50;47.40
27368;DHT22;14839;48.106;11.618;2023-06-04T13:25:29;24.80;49.90
27368;DHT22;14839;48.106;11.618;2023-06-04T13:27:55;25.00;45.10
27368;DHT22;14839;48.106;11.618;2023-06-04T13:30:21;25.20;46.50
27368;DHT22;14839;48.106;11.618;2023-06-04T13:32:48;24.90;45.50
27368;DHT22;14839;48.106;11.618;2023-06-04T13:35:14;25.00;49.00
27368;DHT22;14839;48.106;11.618;2023-06-04T13:37:39;25.10;47.40
27368;DHT22;14839;48.106;11.618;2023-06-04T13:40:05;25.00;45.80
27368;DHT22;14839;48.106;11.618;2023-06-04T13:42:31;25.00;45.40
27368;DHT22;14839;48.106;11.618;2023-06-04T13:44:57;25.10;49.50
27368;DHT22;14839;48.106;11.618;2023-06-04T13:47:24;25.10;47.70
27368;DHT22;14839;48.106;11.618;2023-06-04T13:49:49;24.80;45.50
27368;DHT22;14839;48.106;11.618;2023-06-04T13:52:15;24.50;47.60
27368;DHT22;14839;48.106;11.618;2023-06-04T13:54:40;24.50;49.20
27368;DHT22;14839;48.106;11.618;2023-06-04T13:57:06;24.10;46.70
27368;DHT22;14839;48.106;11.618;2023-06-04T13:59:32;24.20;48.20
27368;DHT22;14839;48.106;11.618;2023-06-04T14:01:59;24.30;48.80
27368;DHT22;14839;48.106;11.618;2023-06-04T14:04:24;24.20;49.30
27368;DHT22;14839;48.106;11.618;2023-06-04T14:06:50;24.30;50.70
27368;DHT22;14839;48.106;11.618;2023-06-04T14:09:15;24.40;51.10
27368;DHT22;14839;48.106;11.618;2023-06-04T14:11:41;24.50;48.90
27368;DHT22;14839;48.106;11.618;2023-06-04T14:14:07;24.50;46.70
27368;DHT22;14839;48.106;11.618;2023-06-04T14:16:33;24.50;46.50
27368;DHT22;14839;48.106;11.618;2023-06-04T14:18:59;24.30;46.70
27368;DHT22;14839;48.106;11.618;2023-06-04T14:21:28;24.60;47.40
27368;DHT22;14839;48.106;11.618;2023-06-04T14:23:53;24.80;49.80
27368;DHT22;14839;48.106;11.618;2023-06-04T14:26:19;24.80;47.00
27368;DHT22;14839;48.106;11.618;2023-06-04T14:28:45;25.00;46.80
27368;DHT22;14839;48.106;11.618;2023-06-04T14:31:11;25.10;46.40
27368;DHT22;14839;48.106;11.618;2023-06-04T14:33:45;25.00;47.00
27368;DHT22;14839;48.106;11.618;2023-06-04T14:36:11;25.00;46.70
27368;DHT22;14839;48.106;11.618;2023-06-04T14:38:36;24.80;46.70
27368;DHT22;14839;48.106;11.618;2023-06-04T14:41:02;24.60;48.60
27368;DHT22;14839;48.106;11.618;2023-06-04T14:43:28;24.40;47.10
27368;DHT22;14839;48.106;11.618;2023-06-04T14:45:53;24.40;49.60
27368;DHT22;14839;48.106;11.618;2023-06-04T14:48:19;24.20;48.60
27368;DHT22;14839;48.106;11.618;2023-06-04T14:50:45;24.10;48.90
27368;DHT22;14839;48.106;11.618;2023-06-04T14:53:12;24.00;51.00
27368;DHT22;14839;48.106;11.618;2023-06-04T14:55:38;23.90;50.20
27368;DHT22;14839;48.106;11.618;2023-06-04T14:58:04;24.00;49.20
27368;DHT22;14839;48.106;11.618;2023-06-04T15:00:30;24.00;49.30
27368;DHT22;14839;48.106;11.618;2023-06-04T15:02:57;24.10;48.90
27368;DHT22;14839;48.106;11.618;2023-06-04T15:05:22;24.10;48.30
27368;DHT22;14839;48.106;11.618;2023-06-04T15:07:48;24.20;50.20
27368;DHT22;14839;48.106;11.618;2023-06-04T15:10:14;24.30;48.60
27368;DHT22;14839;48.106;11.618;2023-06-04T15:12:40;24.20;48.20
27368;DHT22;14839;48.106;11.618;2023-06-04T15:15:07;24.20;48.90
27368;DHT22;14839;48.106;11.618;2023-06-04T15:17:36;24.30;48.60
27368;DHT22;14839;48.106;11.618;2023-06-04T15:20:03;24.10;47.90
27368;DHT22;14839;48.106;11.618;2023-06-04T15:22:29;24.10;48.80
27368;DHT22;14839;48.106;11.618;2023-06-04T15:24:54;24.00;48.90